createdAt,value
2019-06-26T00:00:39.561Z,1015.46
2019-06-26T00:01:39.544Z,1015.46
2019-06-26T00:02:39.533Z,1015.47
2019-06-26T00:03:39.533Z,1015.51
2019-06-26T00:04:39.513Z,1015.52
2019-06-26T00:05:39.499Z,1015.52
2019-06-26T00:06:39.489Z,1015.55
2019-06-26T00:07:39.476Z,1015.52
2019-06-26T00:08:39.469Z,1015.54
2019-06-26T00:09:39.478Z,1015.56
2019-06-26T00:10:39.451Z,1015.56
2019-06-26T00:11:39.448Z,1015.59
2019-06-26T00:12:39.421Z,1015.62
2019-06-26T00:13:39.416Z,1015.58
2019-06-26T00:14:39.405Z,1015.61
2019-06-26T00:15:39.409Z,1015.67
2019-06-26T00:16:39.384Z,1015.59
2019-06-26T00:17:39.374Z,1015.64
2019-06-26T00:18:39.358Z,1015.63
2019-06-26T00:19:39.348Z,1015.62
2019-06-26T00:20:39.342Z,1015.61
2019-06-26T00:21:39.344Z,1015.65
2019-06-26T00:22:39.316Z,1015.65
2019-06-26T00:23:39.304Z,1015.66
2019-06-26T00:24:39.301Z,1015.65
2019-06-26T00:25:39.287Z,1015.69
2019-06-26T00:26:39.271Z,1015.70
2019-06-26T00:27:39.274Z,1015.69
2019-06-26T00:28:39.250Z,1015.68
2019-06-26T00:29:39.245Z,1015.72
2019-06-26T00:30:39.228Z,1015.66
2019-06-26T00:31:39.219Z,1015.68
2019-06-26T00:32:39.209Z,1015.73
2019-06-26T00:33:39.209Z,1015.70
2019-06-26T00:34:39.192Z,1015.70
2019-06-26T00:35:39.191Z,1015.71
2019-06-26T00:36:39.163Z,1015.71
2019-06-26T00:37:39.157Z,1015.73
2019-06-26T00:38:40.200Z,1015.71
2019-06-26T00:39:39.155Z,1015.72
2019-06-26T00:40:39.121Z,1015.72
2019-06-26T00:41:39.116Z,1015.73
2019-06-26T00:42:39.099Z,1015.73
2019-06-26T00:43:42.552Z,1015.73
2019-06-26T00:44:39.081Z,1015.74
2019-06-26T00:45:39.081Z,1015.75
2019-06-26T00:46:39.061Z,1015.73
2019-06-26T00:47:39.051Z,1015.76
2019-06-26T00:48:39.051Z,1015.74
2019-06-26T00:49:39.048Z,1015.77
2019-06-26T00:50:39.019Z,1015.77
2019-06-26T00:51:39.027Z,1015.79
2019-06-26T00:52:39.015Z,1015.79
2019-06-26T00:53:38.986Z,1015.82
2019-06-26T00:54:38.976Z,1015.83
2019-06-26T00:55:38.962Z,1015.82
2019-06-26T00:56:38.955Z,1015.86
2019-06-26T00:57:38.962Z,1015.84
2019-06-26T00:58:38.941Z,1015.83
2019-06-26T00:59:38.921Z,1015.88
2019-06-26T01:00:38.912Z,1015.85
2019-06-26T01:01:38.902Z,1015.87
2019-06-26T01:02:38.926Z,1015.91
2019-06-26T01:03:38.942Z,1015.86
2019-06-26T01:04:38.872Z,1015.88
2019-06-26T01:05:38.865Z,1015.90
2019-06-26T01:06:38.880Z,1015.87
2019-06-26T01:07:38.852Z,1015.89
2019-06-26T01:08:38.832Z,1015.88
2019-06-26T01:09:38.833Z,1015.91
2019-06-26T01:10:38.820Z,1015.92
2019-06-26T01:11:38.796Z,1015.95
2019-06-26T01:12:38.788Z,1015.92
2019-06-26T01:13:38.776Z,1015.93
2019-06-26T01:14:38.767Z,1015.95
2019-06-26T01:15:38.776Z,1015.95
2019-06-26T01:16:38.753Z,1015.97
2019-06-26T01:17:38.740Z,1015.96
2019-06-26T01:18:38.725Z,1015.92
2019-06-26T01:19:38.714Z,1015.92
2019-06-26T01:20:38.724Z,1015.96
2019-06-26T01:21:38.708Z,1015.93
2019-06-26T01:22:38.682Z,1015.91
2019-06-26T01:23:38.690Z,1015.88
2019-06-26T01:24:38.694Z,1015.90
2019-06-26T01:25:38.654Z,1015.89
2019-06-26T01:26:38.649Z,1015.87
2019-06-26T01:27:38.669Z,1015.89
2019-06-26T01:28:38.619Z,1015.89
2019-06-26T01:29:38.611Z,1015.91
2019-06-26T01:30:38.598Z,1015.92
2019-06-26T01:31:38.590Z,1015.88
2019-06-26T01:32:38.577Z,1015.90
2019-06-26T01:33:38.579Z,1015.90
2019-06-26T01:34:38.620Z,1015.89
2019-06-26T01:35:38.552Z,1015.91
2019-06-26T01:36:38.563Z,1015.87
2019-06-26T01:37:38.526Z,1015.90
2019-06-26T01:38:38.520Z,1015.91
2019-06-26T01:39:38.515Z,1015.91
2019-06-26T01:40:38.495Z,1015.92
2019-06-26T01:41:38.486Z,1015.97
2019-06-26T01:42:38.473Z,1015.92
2019-06-26T01:43:38.463Z,1015.95
2019-06-26T01:44:38.453Z,1015.95
2019-06-26T01:45:38.456Z,1015.97
2019-06-26T01:46:38.431Z,1015.94
2019-06-26T01:47:38.422Z,1015.91
2019-06-26T01:48:38.411Z,1015.98
2019-06-26T01:49:38.399Z,1015.99
2019-06-26T01:50:38.392Z,1016.00
2019-06-26T01:51:38.394Z,1016.06
2019-06-26T01:52:38.370Z,1015.99
2019-06-26T01:53:38.359Z,1016.05
2019-06-26T01:54:38.350Z,1016.06
2019-06-26T01:55:38.346Z,1016.06
2019-06-26T01:56:38.345Z,1016.06
2019-06-26T01:57:38.330Z,1016.06
2019-06-26T01:58:38.312Z,1016.08
2019-06-26T01:59:38.296Z,1016.09
2019-06-26T02:00:38.288Z,1016.09
2019-06-26T02:01:38.278Z,1016.06
2019-06-26T02:02:38.262Z,1016.12
2019-06-26T02:03:38.279Z,1016.10
2019-06-26T02:04:38.241Z,1016.13
2019-06-26T02:05:38.236Z,1016.13
2019-06-26T02:06:38.222Z,1016.14
2019-06-26T02:07:38.218Z,1016.12
2019-06-26T02:08:38.198Z,1016.14
2019-06-26T02:09:38.220Z,1016.11
2019-06-26T02:10:38.179Z,1016.15
2019-06-26T02:11:38.183Z,1016.17
2019-06-26T02:12:38.158Z,1016.19
2019-06-26T02:13:38.151Z,1016.20
2019-06-26T02:14:38.137Z,1016.18
2019-06-26T02:15:38.141Z,1016.16
2019-06-26T02:16:38.110Z,1016.21
2019-06-26T02:17:38.102Z,1016.19
2019-06-26T02:18:38.094Z,1016.19
2019-06-26T02:19:38.079Z,1016.22
2019-06-26T02:20:38.071Z,1016.23
2019-06-26T02:21:38.070Z,1016.18
2019-06-26T02:22:38.049Z,1016.24
2019-06-26T02:23:38.040Z,1016.24
2019-06-26T02:24:38.028Z,1016.28
2019-06-26T02:25:38.016Z,1016.26
2019-06-26T02:26:38.008Z,1016.28
2019-06-26T02:27:38.003Z,1016.23
2019-06-26T02:28:37.987Z,1016.27
2019-06-26T02:29:37.987Z,1016.27
2019-06-26T02:30:37.965Z,1016.25
2019-06-26T02:31:37.950Z,1016.26
2019-06-26T02:32:37.939Z,1016.26
2019-06-26T02:33:37.949Z,1016.28
2019-06-26T02:34:37.921Z,1016.23
2019-06-26T02:35:37.909Z,1016.29
2019-06-26T02:36:37.910Z,1016.27
2019-06-26T02:37:37.891Z,1016.30
2019-06-26T02:38:37.896Z,1016.29
2019-06-26T02:39:37.877Z,1016.27
2019-06-26T02:40:37.856Z,1016.27
2019-06-26T02:41:37.848Z,1016.28
2019-06-26T02:42:37.841Z,1016.29
2019-06-26T02:43:37.853Z,1016.32
2019-06-26T02:44:52.335Z,1016.30
2019-06-26T02:45:38.818Z,1016.31
2019-06-26T02:46:37.790Z,1016.32
2019-06-26T02:47:37.833Z,1016.31
2019-06-26T02:48:37.773Z,1016.31
2019-06-26T02:49:37.770Z,1016.32
2019-06-26T02:50:37.757Z,1016.29
2019-06-26T02:51:37.747Z,1016.27
2019-06-26T02:52:37.739Z,1016.32
2019-06-26T02:53:37.715Z,1016.31
2019-06-26T02:54:37.709Z,1016.29
2019-06-26T02:55:37.696Z,1016.33
2019-06-26T02:56:37.687Z,1016.30
2019-06-26T02:57:37.709Z,1016.26
2019-06-26T02:58:37.662Z,1016.28
2019-06-26T02:59:37.657Z,1016.29
2019-06-26T03:00:37.645Z,1016.30
2019-06-26T03:01:37.633Z,1016.28
2019-06-26T03:02:37.622Z,1016.30
2019-06-26T03:03:37.619Z,1016.33
2019-06-26T03:04:37.615Z,1016.32
2019-06-26T03:05:37.595Z,1016.37
2019-06-26T03:06:37.575Z,1016.38
2019-06-26T03:07:37.568Z,1016.40
2019-06-26T03:08:37.561Z,1016.43
2019-06-26T03:09:37.557Z,1016.45
2019-06-26T03:10:37.534Z,1016.43
2019-06-26T03:11:37.523Z,1016.47
2019-06-26T03:12:37.519Z,1016.50
2019-06-26T03:13:37.505Z,1016.46
2019-06-26T03:14:37.498Z,1016.48
2019-06-26T03:15:37.501Z,1016.52
2019-06-26T03:16:37.475Z,1016.52
2019-06-26T03:17:51.016Z,1016.49
2019-06-26T03:18:38.454Z,1016.56
2019-06-26T03:19:37.442Z,1016.55
2019-06-26T03:20:37.431Z,1016.55
2019-06-26T03:21:37.436Z,1016.59
2019-06-26T03:22:37.408Z,1016.59
2019-06-26T03:23:37.395Z,1016.61
2019-06-26T03:24:37.389Z,1016.64
2019-06-26T03:25:37.375Z,1016.66
2019-06-26T03:26:37.368Z,1016.68
2019-06-26T03:27:37.369Z,1016.67
2019-06-26T03:28:37.346Z,1016.71
2019-06-26T03:29:37.336Z,1016.67
2019-06-26T03:30:37.326Z,1016.74
2019-06-26T03:31:37.337Z,1016.70
2019-06-26T03:32:37.304Z,1016.72
2019-06-26T03:33:37.309Z,1016.77
2019-06-26T03:34:37.284Z,1016.73
2019-06-26T03:35:40.624Z,1016.75
2019-06-26T03:36:37.273Z,1016.74
2019-06-26T03:37:37.247Z,1016.79
2019-06-26T03:38:37.244Z,1016.76
2019-06-26T03:39:37.242Z,1016.83
2019-06-26T03:40:37.218Z,1016.84
2019-06-26T03:41:37.229Z,1016.82
2019-06-26T03:42:37.207Z,1016.88
2019-06-26T03:43:37.190Z,1016.85
2019-06-26T03:44:37.177Z,1016.86
2019-06-26T03:45:37.174Z,1016.88
2019-06-26T03:46:37.157Z,1016.88
2019-06-26T03:47:37.145Z,1016.93
2019-06-26T03:48:37.137Z,1016.97
2019-06-26T03:49:37.123Z,1016.93
2019-06-26T03:50:37.110Z,1016.92
2019-06-26T03:51:37.116Z,1016.98
2019-06-26T03:52:37.120Z,1017.00
2019-06-26T03:53:37.083Z,1016.97
2019-06-26T03:54:37.086Z,1017.01
2019-06-26T03:55:37.058Z,1016.98
2019-06-26T03:56:37.056Z,1017.02
2019-06-26T03:57:37.047Z,1016.99
2019-06-26T03:58:37.028Z,1017.01
2019-06-26T03:59:37.023Z,1017.02
2019-06-26T04:00:37.005Z,1016.99
2019-06-26T04:01:36.994Z,1016.98
2019-06-26T04:02:36.990Z,1016.98
2019-06-26T04:03:36.982Z,1017.03
2019-06-26T04:04:36.964Z,1017.00
2019-06-26T04:05:36.965Z,1017.06
2019-06-26T04:06:36.938Z,1017.05
2019-06-26T04:07:36.930Z,1017.08
2019-06-26T04:08:36.925Z,1017.08
2019-06-26T04:09:36.916Z,1017.06
2019-06-26T04:10:36.899Z,1017.09
2019-06-26T04:11:36.887Z,1017.11
2019-06-26T04:12:36.879Z,1017.06
2019-06-26T04:13:36.866Z,1017.08
2019-06-26T04:14:36.861Z,1017.11
2019-06-26T04:15:42.243Z,1017.14
2019-06-26T04:16:37.840Z,1017.13
2019-06-26T04:17:36.823Z,1017.19
2019-06-26T04:18:36.812Z,1017.17
2019-06-26T04:19:36.801Z,1017.22
2019-06-26T04:20:36.793Z,1017.28
2019-06-26T04:21:36.798Z,1017.30
2019-06-26T04:22:36.771Z,1017.35
2019-06-26T04:23:36.775Z,1017.37
2019-06-26T04:24:36.758Z,1017.38
2019-06-26T04:25:38.339Z,1017.38
2019-06-26T04:26:36.727Z,1017.40
2019-06-26T04:27:36.741Z,1017.46
2019-06-26T04:28:36.706Z,1017.46
2019-06-26T04:29:36.710Z,1017.47
2019-06-26T04:30:36.688Z,1017.50
2019-06-26T04:31:36.672Z,1017.48
2019-06-26T04:32:36.685Z,1017.46
2019-06-26T04:33:36.674Z,1017.55
2019-06-26T04:34:36.643Z,1017.53
2019-06-26T04:35:36.632Z,1017.55
2019-06-26T04:36:36.623Z,1017.58
2019-06-26T04:37:36.617Z,1017.58
2019-06-26T04:38:36.608Z,1017.64
2019-06-26T04:39:36.599Z,1017.63
2019-06-26T04:40:36.580Z,1017.66
2019-06-26T04:41:36.738Z,1017.66
2019-06-26T04:42:36.559Z,1017.67
2019-06-26T04:43:36.547Z,1017.71
2019-06-26T04:44:36.551Z,1017.71
2019-06-26T04:45:36.548Z,1017.69
2019-06-26T04:46:36.516Z,1017.73
2019-06-26T04:47:36.527Z,1017.77
2019-06-26T04:48:36.499Z,1017.78
2019-06-26T04:49:36.485Z,1017.81
2019-06-26T04:50:36.479Z,1017.83
2019-06-26T04:51:36.481Z,1017.83
2019-06-26T04:52:36.467Z,1017.88
2019-06-26T04:53:36.443Z,1017.86
2019-06-26T04:54:36.437Z,1017.84
2019-06-26T04:55:36.452Z,1017.86
2019-06-26T04:56:36.424Z,1017.89
2019-06-26T04:57:36.415Z,1017.89
2019-06-26T04:58:36.389Z,1017.90
2019-06-26T04:59:36.380Z,1017.90
2019-06-26T05:00:36.373Z,1017.85
2019-06-26T05:01:36.360Z,1017.88
2019-06-26T05:02:36.350Z,1017.89
2019-06-26T05:03:36.350Z,1017.94
2019-06-26T05:04:36.332Z,1017.95
2019-06-26T05:05:39.928Z,1017.97
2019-06-26T05:06:36.373Z,1017.98
2019-06-26T05:07:36.300Z,1018.00
2019-06-26T05:08:36.289Z,1018.03
2019-06-26T05:09:36.301Z,1018.01
2019-06-26T05:10:36.270Z,1018.05
2019-06-26T05:11:36.265Z,1018.04
2019-06-26T05:12:36.247Z,1018.01
2019-06-26T05:13:36.236Z,1018.05
2019-06-26T05:14:36.225Z,1018.04
2019-06-26T05:15:36.236Z,1018.10
2019-06-26T05:16:36.210Z,1018.14
2019-06-26T05:17:36.246Z,1018.16
2019-06-26T05:18:36.184Z,1018.26
2019-06-26T05:19:36.175Z,1018.25
2019-06-26T05:20:36.167Z,1018.24
2019-06-26T05:21:36.173Z,1018.25
2019-06-26T05:22:36.149Z,1018.25
2019-06-26T05:23:36.139Z,1018.27
2019-06-26T05:24:36.125Z,1018.31
2019-06-26T05:25:36.116Z,1018.30
2019-06-26T05:26:36.103Z,1018.37
2019-06-26T05:27:36.143Z,1018.34
2019-06-26T05:28:36.084Z,1018.33
2019-06-26T05:29:36.079Z,1018.41
2019-06-26T05:30:36.071Z,1018.31
2019-06-26T05:31:36.054Z,1018.37
2019-06-26T05:32:36.051Z,1018.39
2019-06-26T05:33:36.055Z,1018.43
2019-06-26T05:34:36.029Z,1018.46
2019-06-26T05:35:36.012Z,1018.52
2019-06-26T05:36:36.002Z,1018.54
2019-06-26T05:37:35.991Z,1018.52
2019-06-26T05:38:35.979Z,1018.47
2019-06-26T05:39:35.987Z,1018.47
2019-06-26T05:40:35.977Z,1018.47
2019-06-26T05:41:35.983Z,1018.49
2019-06-26T05:42:35.939Z,1018.50
2019-06-26T05:43:35.929Z,1018.51
2019-06-26T05:44:35.920Z,1018.56
2019-06-26T05:45:35.930Z,1018.58
2019-06-26T05:46:35.912Z,1018.63
2019-06-26T05:47:35.889Z,1018.69
2019-06-26T05:48:35.880Z,1018.69
2019-06-26T05:49:35.874Z,1018.77
2019-06-26T05:50:35.889Z,1018.84
2019-06-26T05:51:35.863Z,1018.82
2019-06-26T05:52:35.841Z,1018.85
2019-06-26T05:53:35.845Z,1018.85
2019-06-26T05:54:35.818Z,1018.78
2019-06-26T05:55:35.812Z,1018.77
2019-06-26T05:56:35.802Z,1018.77
2019-06-26T05:57:35.800Z,1018.82
2019-06-26T05:58:35.781Z,1018.84
2019-06-26T05:59:35.767Z,1018.82
2019-06-26T06:00:35.757Z,1018.83
2019-06-26T06:01:35.767Z,1018.82
2019-06-26T06:02:35.770Z,1018.87
2019-06-26T06:03:35.739Z,1018.85
2019-06-26T06:04:35.718Z,1018.83
2019-06-26T06:05:35.712Z,1018.89
2019-06-26T06:06:41.616Z,1018.84
2019-06-26T06:07:36.693Z,1018.89
2019-06-26T06:08:35.677Z,1018.95
2019-06-26T06:09:35.682Z,1018.97
2019-06-26T06:10:35.657Z,1018.96
2019-06-26T06:11:35.644Z,1019.02
2019-06-26T06:12:35.635Z,1019.17
2019-06-26T06:13:35.625Z,1019.24
2019-06-26T06:14:35.617Z,1019.20
2019-06-26T06:15:35.759Z,1019.21
2019-06-26T06:16:46.957Z,1019.26
2019-06-26T06:17:36.586Z,1019.27
2019-06-26T06:18:35.576Z,1019.29
2019-06-26T06:19:35.567Z,1019.25
2019-06-26T06:20:35.556Z,1019.25
2019-06-26T06:21:35.560Z,1019.29
2019-06-26T06:22:35.543Z,1019.25
2019-06-26T06:23:35.529Z,1019.22
2019-06-26T06:24:35.516Z,1019.26
2019-06-26T06:25:35.510Z,1019.25
2019-06-26T06:26:35.494Z,1019.24
2019-06-26T06:27:35.497Z,1019.26
2019-06-26T06:28:35.477Z,1019.22
2019-06-26T06:29:35.465Z,1019.26
2019-06-26T06:30:35.467Z,1019.26
2019-06-26T06:31:35.450Z,1019.20
2019-06-26T06:32:35.438Z,1019.20
2019-06-26T06:33:35.444Z,1019.25
2019-06-26T06:34:35.434Z,1019.25
2019-06-26T06:35:35.407Z,1019.18
2019-06-26T06:36:35.396Z,1019.17
2019-06-26T06:37:35.385Z,1019.17
2019-06-26T06:38:35.376Z,1019.18
2019-06-26T06:39:35.380Z,1019.21
2019-06-26T06:40:35.364Z,1019.19
2019-06-26T06:41:35.348Z,1019.17
2019-06-26T06:42:35.336Z,1019.22
2019-06-26T06:43:35.326Z,1019.18
2019-06-26T06:44:35.318Z,1019.17
2019-06-26T06:45:35.319Z,1019.19
2019-06-26T06:46:35.297Z,1019.20
2019-06-26T06:47:35.297Z,1019.19
2019-06-26T06:48:35.277Z,1019.20
2019-06-26T06:49:35.271Z,1019.16
2019-06-26T06:50:35.260Z,1019.18
2019-06-26T06:51:35.282Z,1019.17
2019-06-26T06:52:35.326Z,1019.18
2019-06-26T06:53:35.233Z,1019.14
2019-06-26T06:54:35.220Z,1019.14
2019-06-26T06:55:35.210Z,1019.16
2019-06-26T06:56:35.199Z,1019.17
2019-06-26T06:57:35.208Z,1019.17
2019-06-26T06:58:35.182Z,1019.11
2019-06-26T06:59:35.170Z,1019.24
2019-06-26T07:00:35.185Z,1019.22
2019-06-26T07:01:35.153Z,1019.24
2019-06-26T07:02:35.142Z,1019.22
2019-06-26T07:03:35.148Z,1019.27
2019-06-26T07:04:35.122Z,1019.34
2019-06-26T07:05:35.113Z,1019.33
2019-06-26T07:06:35.105Z,1019.31
2019-06-26T07:07:35.091Z,1019.34
2019-06-26T07:08:35.083Z,1019.31
2019-06-26T07:09:35.085Z,1019.36
2019-06-26T07:10:35.066Z,1019.38
2019-06-26T07:11:35.076Z,1019.36
2019-06-26T07:12:35.047Z,1019.43
2019-06-26T07:13:35.034Z,1019.41
2019-06-26T07:14:35.025Z,1019.41
2019-06-26T07:15:35.032Z,1019.48
2019-06-26T07:16:35.005Z,1019.47
2019-06-26T07:17:34.997Z,1019.42
2019-06-26T07:18:34.988Z,1019.50
2019-06-26T07:19:34.977Z,1019.50
2019-06-26T07:20:34.968Z,1019.53
2019-06-26T07:21:34.971Z,1019.53
2019-06-26T07:22:34.947Z,1019.49
2019-06-26T07:23:34.938Z,1019.49
2019-06-26T07:24:34.931Z,1019.50
2019-06-26T07:25:34.918Z,1019.52
2019-06-26T07:26:34.912Z,1019.46
2019-06-26T07:27:34.911Z,1019.53
2019-06-26T07:28:34.895Z,1019.55
2019-06-26T07:29:34.880Z,1019.60
2019-06-26T07:30:34.875Z,1019.58
2019-06-26T07:31:38.352Z,1019.52
2019-06-26T07:32:34.850Z,1019.56
2019-06-26T07:33:34.863Z,1019.55
2019-06-26T07:34:34.833Z,1019.53
2019-06-26T07:35:34.822Z,1019.53
2019-06-26T07:36:34.831Z,1019.49
2019-06-26T07:37:34.803Z,1019.51
2019-06-26T07:38:34.797Z,1019.49
2019-06-26T07:39:34.795Z,1019.55
2019-06-26T07:40:34.778Z,1019.50
2019-06-26T07:41:34.762Z,1019.58
2019-06-26T07:42:34.769Z,1019.58
2019-06-26T07:43:34.741Z,1019.62
2019-06-26T07:44:34.731Z,1019.61
2019-06-26T07:45:34.733Z,1019.64
2019-06-26T07:46:34.770Z,1019.71
2019-06-26T07:47:43.111Z,1019.72
2019-06-26T07:48:35.691Z,1019.72
2019-06-26T07:49:34.684Z,1019.71
2019-06-26T07:50:34.675Z,1019.70
2019-06-26T07:51:34.676Z,1019.71
2019-06-26T07:52:34.653Z,1019.69
2019-06-26T07:53:34.645Z,1019.72
2019-06-26T07:54:34.636Z,1019.69
2019-06-26T07:55:34.627Z,1019.70
2019-06-26T07:56:34.616Z,1019.75
2019-06-26T07:57:34.718Z,1019.71
2019-06-26T07:58:34.600Z,1019.72
2019-06-26T07:59:34.591Z,1019.68
2019-06-26T08:00:34.779Z,1019.67
2019-06-26T08:01:34.569Z,1019.68
2019-06-26T08:02:34.559Z,1019.69
2019-06-26T08:03:34.567Z,1019.75
2019-06-26T08:04:34.547Z,1019.75
2019-06-26T08:05:34.530Z,1019.72
2019-06-26T08:06:34.521Z,1019.75
2019-06-26T08:07:34.517Z,1019.75
2019-06-26T08:08:34.502Z,1019.77
2019-06-26T08:09:34.517Z,1019.76
2019-06-26T08:10:34.481Z,1019.77
2019-06-26T08:11:34.502Z,1019.80
2019-06-26T08:12:34.468Z,1019.83
2019-06-26T08:13:34.457Z,1019.83
2019-06-26T08:14:34.446Z,1019.75
2019-06-26T08:15:34.447Z,1019.68
2019-06-26T08:16:34.615Z,1019.71
2019-06-26T08:17:34.418Z,1019.74
2019-06-26T08:18:34.407Z,1019.72
2019-06-26T08:19:34.406Z,1019.68
2019-06-26T08:20:50.271Z,1019.70
2019-06-26T08:21:35.390Z,1019.69
2019-06-26T08:22:34.370Z,1019.66
2019-06-26T08:23:34.360Z,1019.68
2019-06-26T08:24:34.353Z,1019.64
2019-06-26T08:25:34.341Z,1019.69
2019-06-26T08:26:34.332Z,1019.73
2019-06-26T08:27:34.336Z,1019.73
2019-06-26T08:28:34.313Z,1019.67
2019-06-26T08:29:34.321Z,1019.69
2019-06-26T08:30:34.295Z,1019.72
2019-06-26T08:31:34.287Z,1019.70
2019-06-26T08:32:34.276Z,1019.71
2019-06-26T08:33:34.279Z,1019.72
2019-06-26T08:34:34.257Z,1019.78
2019-06-26T08:35:34.249Z,1019.84
2019-06-26T08:36:34.240Z,1019.85
2019-06-26T08:37:34.230Z,1019.89
2019-06-26T08:38:34.218Z,1019.85
2019-06-26T08:39:34.224Z,1019.84
2019-06-26T08:40:34.201Z,1019.81
2019-06-26T08:41:34.188Z,1019.87
2019-06-26T08:42:34.233Z,1019.87
2019-06-26T08:43:34.170Z,1019.91
2019-06-26T08:44:34.169Z,1019.92
2019-06-26T08:45:34.173Z,1019.93
2019-06-26T08:46:34.142Z,1019.93
2019-06-26T08:47:34.131Z,1019.92
2019-06-26T08:48:39.029Z,1019.91
2019-06-26T08:49:35.110Z,1019.97
2019-06-26T08:50:34.104Z,1019.96
2019-06-26T08:51:34.126Z,1019.98
2019-06-26T08:52:34.090Z,1019.95
2019-06-26T08:53:34.093Z,1019.97
2019-06-26T08:54:34.069Z,1019.98
2019-06-26T08:55:34.055Z,1020.00
2019-06-26T08:56:34.045Z,1019.98
2019-06-26T08:57:34.057Z,1020.00
2019-06-26T08:58:34.028Z,1020.05
2019-06-26T08:59:34.027Z,1020.04
2019-06-26T09:00:34.008Z,1020.05
2019-06-26T09:01:34.000Z,1020.07
2019-06-26T09:02:33.988Z,1020.05
2019-06-26T09:03:33.995Z,1020.08
2019-06-26T09:04:33.969Z,1020.07
2019-06-26T09:05:47.376Z,1020.11
2019-06-26T09:06:34.951Z,1020.18
2019-06-26T09:07:33.941Z,1020.13
2019-06-26T09:08:33.931Z,1020.17
2019-06-26T09:09:33.933Z,1020.17
2019-06-26T09:10:33.911Z,1020.20
2019-06-26T09:11:33.900Z,1020.16
2019-06-26T09:12:33.905Z,1020.17
2019-06-26T09:13:33.882Z,1020.16
2019-06-26T09:14:33.873Z,1020.17
2019-06-26T09:15:33.873Z,1020.18
2019-06-26T09:16:33.851Z,1020.20
2019-06-26T09:17:33.843Z,1020.22
2019-06-26T09:18:35.882Z,1020.28
2019-06-26T09:19:33.823Z,1020.26
2019-06-26T09:20:33.812Z,1020.27
2019-06-26T09:21:33.816Z,1020.27
2019-06-26T09:22:33.796Z,1020.27
2019-06-26T09:23:33.785Z,1020.29
2019-06-26T09:24:33.782Z,1020.30
2019-06-26T09:25:33.765Z,1020.30
2019-06-26T09:26:33.760Z,1020.33
2019-06-26T09:27:33.756Z,1020.35
2019-06-26T09:28:33.738Z,1020.34
2019-06-26T09:29:33.736Z,1020.33
2019-06-26T09:30:33.716Z,1020.39
2019-06-26T09:31:33.709Z,1020.33
2019-06-26T09:32:33.702Z,1020.34
2019-06-26T09:33:33.699Z,1020.34
2019-06-26T09:34:33.676Z,1020.39
2019-06-26T09:35:33.667Z,1020.38
2019-06-26T09:36:33.660Z,1020.40
2019-06-26T09:37:33.651Z,1020.41
2019-06-26T09:38:33.639Z,1020.42
2019-06-26T09:39:33.647Z,1020.42
2019-06-26T09:40:33.621Z,1020.42
2019-06-26T09:41:33.610Z,1020.44
2019-06-26T09:42:33.599Z,1020.43
2019-06-26T09:43:33.595Z,1020.50
2019-06-26T09:44:33.581Z,1020.42
2019-06-26T09:45:33.584Z,1020.47
2019-06-26T09:46:33.565Z,1020.48
2019-06-26T09:47:33.551Z,1020.53
2019-06-26T09:48:33.543Z,1020.48
2019-06-26T09:49:33.547Z,1020.48
2019-06-26T09:50:33.523Z,1020.45
2019-06-26T09:51:33.526Z,1020.49
2019-06-26T09:52:33.504Z,1020.56
2019-06-26T09:53:46.635Z,1020.56
2019-06-26T09:54:34.489Z,1020.51
2019-06-26T09:55:33.475Z,1020.51
2019-06-26T09:56:33.465Z,1020.50
2019-06-26T09:57:33.469Z,1020.47
2019-06-26T09:58:33.445Z,1020.45
2019-06-26T09:59:33.437Z,1020.43
2019-06-26T10:00:33.430Z,1020.44
2019-06-26T10:01:33.535Z,1020.44
2019-06-26T10:02:33.414Z,1020.49
2019-06-26T10:03:33.410Z,1020.43
2019-06-26T10:04:33.387Z,1020.41
2019-06-26T10:05:33.376Z,1020.46
2019-06-26T10:06:33.369Z,1020.44
2019-06-26T10:07:33.361Z,1020.44
2019-06-26T10:08:33.348Z,1020.37
2019-06-26T10:09:33.354Z,1020.34
2019-06-26T10:10:33.327Z,1020.41
2019-06-26T10:11:33.318Z,1020.43
2019-06-26T10:12:33.312Z,1020.44
2019-06-26T10:13:33.449Z,1020.43
2019-06-26T10:14:46.614Z,1020.48
2019-06-26T10:15:34.292Z,1020.45
2019-06-26T10:16:33.271Z,1020.48
2019-06-26T10:17:33.260Z,1020.40
2019-06-26T10:18:33.289Z,1020.41
2019-06-26T10:19:33.241Z,1020.40
2019-06-26T10:20:33.231Z,1020.45
2019-06-26T10:21:33.244Z,1020.43
2019-06-26T10:22:33.213Z,1020.50
2019-06-26T10:23:33.214Z,1020.51
2019-06-26T10:24:33.215Z,1020.53
2019-06-26T10:25:33.209Z,1020.56
2019-06-26T10:26:33.234Z,1020.53
2019-06-26T10:27:33.561Z,1020.53
2019-06-26T10:28:33.157Z,1020.53
2019-06-26T10:29:33.151Z,1020.55
2019-06-26T10:30:33.136Z,1020.58
2019-06-26T10:31:33.126Z,1020.72
2019-06-26T10:32:33.125Z,1020.76
2019-06-26T10:33:33.124Z,1020.80
2019-06-26T10:34:33.100Z,1020.85
2019-06-26T10:35:33.090Z,1020.87
2019-06-26T10:36:33.083Z,1020.80
2019-06-26T10:37:33.069Z,1020.78
2019-06-26T10:38:33.060Z,1020.75
2019-06-26T10:39:33.076Z,1020.80
2019-06-26T10:40:33.041Z,1020.85
2019-06-26T10:41:33.031Z,1020.83
2019-06-26T10:42:33.023Z,1020.84
2019-06-26T10:43:33.012Z,1020.84
2019-06-26T10:44:33.001Z,1020.86
2019-06-26T10:45:36.075Z,1020.89
2019-06-26T10:46:32.984Z,1020.91
2019-06-26T10:47:32.991Z,1020.88
2019-06-26T10:48:32.963Z,1020.90
2019-06-26T10:49:32.956Z,1020.89
2019-06-26T10:50:32.943Z,1020.86
2019-06-26T10:51:33.013Z,1020.87
2019-06-26T10:52:32.927Z,1020.92
2019-06-26T10:53:32.915Z,1020.86
2019-06-26T10:54:32.916Z,1020.69
2019-06-26T10:55:32.892Z,1020.60
2019-06-26T10:56:32.884Z,1020.59
2019-06-26T10:57:32.902Z,1020.53
2019-06-26T10:58:32.865Z,1020.54
2019-06-26T10:59:32.871Z,1020.51
2019-06-26T11:00:32.851Z,1020.55
2019-06-26T11:01:32.836Z,1020.59
2019-06-26T11:02:32.824Z,1020.57
2019-06-26T11:03:32.828Z,1020.52
2019-06-26T11:04:32.805Z,1020.49
2019-06-26T11:05:32.799Z,1020.48
2019-06-26T11:06:36.762Z,1020.48
2019-06-26T11:07:36.357Z,1020.49
2019-06-26T11:08:32.764Z,1020.52
2019-06-26T11:09:32.775Z,1020.53
2019-06-26T11:10:32.770Z,1020.50
2019-06-26T11:11:32.734Z,1020.47
2019-06-26T11:12:32.724Z,1020.47
2019-06-26T11:13:32.739Z,1020.52
2019-06-26T11:14:32.713Z,1020.51
2019-06-26T11:15:32.719Z,1020.49
2019-06-26T11:16:32.685Z,1020.48
2019-06-26T11:17:32.695Z,1020.43
2019-06-26T11:18:32.668Z,1020.47
2019-06-26T11:19:43.325Z,1020.40
2019-06-26T11:20:33.682Z,1020.40
2019-06-26T11:21:32.636Z,1020.33
2019-06-26T11:22:32.654Z,1020.41
2019-06-26T11:23:32.612Z,1020.38
2019-06-26T11:24:32.638Z,1020.38
2019-06-26T11:25:32.594Z,1020.40
2019-06-26T11:26:32.607Z,1020.39
2019-06-26T11:27:32.572Z,1020.37
2019-06-26T11:28:32.563Z,1020.34
2019-06-26T11:29:32.561Z,1020.33
2019-06-26T11:30:32.547Z,1020.39
2019-06-26T11:31:32.553Z,1020.41
2019-06-26T11:32:32.542Z,1020.40
2019-06-26T11:33:32.514Z,1020.40
2019-06-26T11:34:32.500Z,1020.39
2019-06-26T11:35:32.496Z,1020.35
2019-06-26T11:36:32.487Z,1020.37
2019-06-26T11:37:32.468Z,1020.36
2019-06-26T11:38:32.471Z,1020.30
2019-06-26T11:39:32.449Z,1020.32
2019-06-26T11:40:32.436Z,1020.33
2019-06-26T11:41:32.427Z,1020.33
2019-06-26T11:42:32.904Z,1020.35
2019-06-26T11:43:32.404Z,1020.35
2019-06-26T11:44:32.408Z,1020.34
2019-06-26T11:45:32.386Z,1020.30
2019-06-26T11:46:32.376Z,1020.31
2019-06-26T11:47:32.365Z,1020.32
2019-06-26T11:48:32.360Z,1020.29
2019-06-26T11:49:32.385Z,1020.32
2019-06-26T11:50:32.351Z,1020.37
2019-06-26T11:51:32.324Z,1020.29
2019-06-26T11:52:32.320Z,1020.37
2019-06-26T11:53:32.304Z,1020.26
2019-06-26T11:54:32.293Z,1020.30
2019-06-26T11:55:32.281Z,1020.26
2019-06-26T11:56:32.313Z,1020.19
2019-06-26T11:57:32.263Z,1020.20
2019-06-26T11:58:32.251Z,1020.21
2019-06-26T11:59:32.241Z,1020.21
2019-06-26T12:00:32.233Z,1020.18
2019-06-26T12:01:32.220Z,1020.25
2019-06-26T12:02:32.225Z,1020.21
2019-06-26T12:03:32.202Z,1020.19
2019-06-26T12:04:32.192Z,1020.18
2019-06-26T12:05:32.179Z,1020.16